地図

経路データ

SID SEASON NUMBER BASIN SUBBASIN NAME ISO_TIME NATURE LAT LON WMO_WIND WMO_PRES WMO_AGENCY TRACK_TYPE DIST2LAND LANDFALL IFLAG USA_AGENCY USA_ATCF_ID USA_LAT USA_LON USA_RECORD USA_STATUS USA_WIND USA_PRES USA_SSHS USA_R34_NE USA_R34_SE USA_R34_SW USA_R34_NW USA_R50_NE USA_R50_SE USA_R50_SW USA_R50_NW USA_R64_NE USA_R64_SE USA_R64_SW USA_R64_NW USA_POCI USA_ROCI USA_RMW USA_EYE TOKYO_LAT TOKYO_LON TOKYO_GRADE TOKYO_WIND TOKYO_PRES TOKYO_R50_DIR TOKYO_R50_LONG TOKYO_R50_SHORT TOKYO_R30_DIR TOKYO_R30_LONG TOKYO_R30_SHORT TOKYO_LAND CMA_LAT CMA_LON CMA_CAT CMA_WIND CMA_PRES HKO_LAT HKO_LON HKO_CAT HKO_WIND HKO_PRES NEWDELHI_LAT NEWDELHI_LON NEWDELHI_GRADE NEWDELHI_WIND NEWDELHI_PRES NEWDELHI_CI NEWDELHI_DP NEWDELHI_POCI REUNION_LAT REUNION_LON REUNION_TYPE REUNION_WIND REUNION_PRES REUNION_TNUM REUNION_CI REUNION_RMW REUNION_R34_NE REUNION_R34_SE REUNION_R34_SW REUNION_R34_NW REUNION_R50_NE REUNION_R50_SE REUNION_R50_SW REUNION_R50_NW REUNION_R64_NE REUNION_R64_SE REUNION_R64_SW REUNION_R64_NW BOM_LAT BOM_LON BOM_TYPE BOM_WIND BOM_PRES BOM_TNUM BOM_CI BOM_RMW BOM_R34_NE BOM_R34_SE BOM_R34_SW BOM_R34_NW BOM_R50_NE BOM_R50_SE BOM_R50_SW BOM_R50_NW BOM_R64_NE BOM_R64_SE BOM_R64_SW BOM_R64_NW BOM_ROCI BOM_POCI BOM_EYE BOM_POS_METHOD BOM_PRES_METHOD NADI_LAT NADI_LON NADI_CAT NADI_WIND NADI_PRES WELLINGTON_LAT WELLINGTON_LON WELLINGTON_WIND WELLINGTON_PRES DS824_LAT DS824_LON DS824_STAGE DS824_WIND DS824_PRES TD9636_LAT TD9636_LON TD9636_STAGE TD9636_WIND TD9636_PRES TD9635_LAT TD9635_LON TD9635_WIND TD9635_PRES TD9635_ROCI NEUMANN_LAT NEUMANN_LON NEUMANN_CLASS NEUMANN_WIND NEUMANN_PRES MLC_LAT MLC_LON MLC_CLASS MLC_WIND MLC_PRES USA_GUST BOM_GUST BOM_GUST_PER REUNION_GUST REUNION_GUST_PER USA_SEAHGT USA_SEARAD_NE USA_SEARAD_SE USA_SEARAD_SW USA_SEARAD_NW STORM_SPEED STORM_DIR
1953146N14278 1953 23 NA CS ALICE 1953-05-25 18:00:00 TS 14.4000 -81.8000 25 hurdat_atl main 151 122 O_____________ hurdat_atl AL011953 14.4000 -81.8000 TD 25 -1 7 318
1953146N14278 1953 23 NA CS ALICE 1953-05-25 21:00:00 TS 14.6701 -82.0498 main 122 86 P_____________ AL011953 14.6701 -82.0498 TD 27 -1 7 316
1953146N14278 1953 23 NA CS ALICE 1953-05-26 00:00:00 TS 14.9000 -82.3000 30 hurdat_atl main 86 64 O_____________ hurdat_atl AL011953 14.9000 -82.3000 TD 30 -1 6 309
1953146N14278 1953 23 NA CS ALICE 1953-05-26 03:00:00 TS 15.0650 -82.5501 main 54 39 P_____________ AL011953 15.0650 -82.5501 TD 30 -1 6 302
1953146N14278 1953 23 NA CS ALICE 1953-05-26 06:00:00 TS 15.2000 -82.8000 30 hurdat_atl main 39 31 O_____________ hurdat_atl AL011953 15.2000 -82.8000 TD 30 -1 6 304
1953146N14278 1953 23 NA CS ALICE 1953-05-26 09:00:00 TS 15.3799 -83.0424 main 44 24 P_____________ AL011953 15.3799 -83.0424 TD 32 -1 6 302
1953146N14278 1953 23 NA CS ALICE 1953-05-26 12:00:00 TS 15.5000 -83.3000 35 hurdat_atl main 24 15 O_____________ hurdat_atl AL011953 15.5000 -83.3000 TS 35 0 5 282
1953146N14278 1953 23 NA CS ALICE 1953-05-26 15:00:00 TS 15.4950 -83.5925 main 15 10 P_____________ AL011953 15.4950 -83.5925 TS 35 0 6 260
1953146N14278 1953 23 NA CS ALICE 1953-05-26 18:00:00 TS 15.4000 -83.9000 35 hurdat_atl main 11 0 O_____________ hurdat_atl AL011953 15.4000 -83.9000 L TS 35 0 6 249
1953146N14278 1953 23 NA NA ALICE 1953-05-26 21:00:00 TS 15.2650 -84.2151 main 0 0 P_____________ AL011953 15.2650 -84.2151 TS 35 0 7 243
1953146N14278 1953 23 NA NA ALICE 1953-05-27 00:00:00 TS 15.1000 -84.5000 35 hurdat_atl main 0 0 O_____________ hurdat_atl AL011953 15.1000 -84.5000 TS 35 0 6 239
1953146N14278 1953 23 NA NA ALICE 1953-05-27 03:00:00 TS 14.9575 -84.7375 main 0 0 P_____________ AL011953 14.9575 -84.7375 TS 32 -1 5 232
1953146N14278 1953 23 NA NA ALICE 1953-05-27 06:00:00 TS 14.8000 -84.9000 30 hurdat_atl main 0 0 O_____________ hurdat_atl AL011953 14.8000 -84.9000 TD 30 -1 4 214
1953146N14278 1953 23 NA NA ALICE 1953-05-27 09:00:00 TS 14.6075 -84.9875 main 0 0 P_____________ AL011953 14.6075 -84.9875 TD 27 -1 4 193
1953146N14278 1953 23 NA NA ALICE 1953-05-27 12:00:00 TS 14.4000 -85.0000 25 hurdat_atl main 0 0 O_____________ hurdat_atl AL011953 14.4000 -85.0000 TD 25 -1 4 0
1953146N14278 1953 23 NA NA ALICE 1953-05-27 15:00:00 TS 14.2000 -84.9875 main 0 0 P_____________ AL011953 14.2000 -84.9875 TD 25 -1 4 167
1953146N14278 1953 23 NA NA ALICE 1953-05-27 18:00:00 TS 14.0000 -84.9000 25 hurdat_atl main 0 0 O_____________ hurdat_atl AL011953 14.0000 -84.9000 TD 25 -1 5 148
1953146N14278 1953 23 NA NA ALICE 1953-05-27 21:00:00 TS 13.8000 -84.7300 main 0 0 P_____________ AL011953 13.8000 -84.7300 TD 25 -1 6 136
1953146N14278 1953 23 NA NA ALICE 1953-05-28 00:00:00 TS 13.6000 -84.5000 25 hurdat_atl main 0 0 O_____________ hurdat_atl AL011953 13.6000 -84.5000 TD 25 -1 6 133
1953146N14278 1953 23 NA NA ALICE 1953-05-28 03:00:00 TS 13.3775 -84.2575 main 0 0 P_____________ AL011953 13.3775 -84.2575 TD 25 -1 6 129
1953146N14278 1953 23 NA NA ALICE 1953-05-28 06:00:00 TS 13.2000 -84.0000 25 hurdat_atl main 0 0 O_____________ hurdat_atl AL011953 13.2000 -84.0000 TD 25 -1 6 122
1953146N14278 1953 23 NA NA ALICE 1953-05-28 09:00:00 TS 13.0750 -83.7499 main 0 0 P_____________ AL011953 13.0750 -83.7499 TD 27 -1 5 102
1953146N14278 1953 23 NA CS ALICE 1953-05-28 12:00:00 TS 13.1000 -83.5000 30 hurdat_atl main 0 0 O_____________ hurdat_atl AL011953 13.1000 -83.5000 TD 30 -1 5 64
1953146N14278 1953 23 NA CS ALICE 1953-05-28 15:00:00 TS 13.3175 -83.2500 main 32 32 P_____________ AL011953 13.3175 -83.2500 TD 30 -1 8 39
1953146N14278 1953 23 NA CS ALICE 1953-05-28 18:00:00 TS 13.7000 -83.0000 30 hurdat_atl main 54 48 O_____________ hurdat_atl AL011953 13.7000 -83.0000 TD 30 -1 10 30
1953146N14278 1953 23 NA CS ALICE 1953-05-28 21:00:00 TS 14.1550 -82.7425 main 55 53 P_____________ AL011953 14.1550 -82.7425 TD 30 -1 11 26
1953146N14278 1953 23 NA CS ALICE 1953-05-29 00:00:00 TS 14.7000 -82.5000 30 hurdat_atl main 72 68 O_____________ hurdat_atl AL011953 14.7000 -82.5000 TD 30 -1 12 23
1953146N14278 1953 23 NA CS ALICE 1953-05-29 03:00:00 TS 15.2700 -82.2626 main 92 92 P_____________ AL011953 15.2700 -82.2626 TD 30 -1 13 18
1953146N14278 1953 23 NA CS ALICE 1953-05-29 06:00:00 TS 15.9000 -82.1000 30 hurdat_atl main 147 147 O_____________ hurdat_atl AL011953 15.9000 -82.1000 TD 30 -1 14 8
1953146N14278 1953 23 NA CS ALICE 1953-05-29 09:00:00 TS 16.6225 -82.0623 main 201 201 P_____________ AL011953 16.6225 -82.0623 TD 30 -1 14 0
1953146N14278 1953 23 NA CS ALICE 1953-05-29 12:00:00 TS 17.3000 -82.1000 30 hurdat_atl main 263 263 O_____________ hurdat_atl AL011953 17.3000 -82.1000 TD 30 -1 12 357
1953146N14278 1953 23 NA CS ALICE 1953-05-29 15:00:00 TS 17.7950 -82.1276 main 312 312 P_____________ AL011953 17.7950 -82.1276 TD 32 -1 9 354
1953146N14278 1953 23 NA CS ALICE 1953-05-29 18:00:00 TS 18.2000 -82.2000 35 hurdat_atl main 348 317 O_____________ hurdat_atl AL011953 18.2000 -82.2000 TS 35 0 8 348
1953146N14278 1953 23 NA CS ALICE 1953-05-29 21:00:00 TS 18.6149 -82.3126 main 317 270 P_____________ AL011953 18.6149 -82.3126 TS 35 0 9 340
1953146N14278 1953 23 NA CS ALICE 1953-05-30 00:00:00 TS 19.0000 -82.5000 35 hurdat_atl main 270 223 O_____________ hurdat_atl AL011953 19.0000 -82.5000 TS 35 0 9 330
1953146N14278 1953 23 NA CS ALICE 1953-05-30 03:00:00 TS 19.3725 -82.7774 main 223 192 P_____________ AL011953 19.3725 -82.7774 TS 35 0 9 321
1953146N14278 1953 23 NA CS ALICE 1953-05-30 06:00:00 TS 19.7000 -83.1000 35 hurdat_atl main 192 168 O_____________ hurdat_atl AL011953 19.7000 -83.1000 TS 35 0 9 315
1953146N14278 1953 23 NA CS ALICE 1953-05-30 09:00:00 TS 19.9800 -83.4225 main 168 157 P_____________ AL011953 19.9800 -83.4225 TS 37 0 8 312
1953146N14278 1953 23 NA CS ALICE 1953-05-30 12:00:00 TS 20.2000 -83.7000 40 hurdat_atl main 162 157 O_____________ hurdat_atl AL011953 20.2000 -83.7000 TS 40 0 6 311
1953146N14278 1953 23 NA CS ALICE 1953-05-30 15:00:00 TS 20.3574 -83.8876 main 154 152 P_____________ AL011953 20.3574 -83.8876 TS 40 0 4 317
1953146N14278 1953 23 NA CS ALICE 1953-05-30 18:00:00 TS 20.5000 -84.0000 40 1000 hurdat_atl main 152 129 O_____________ hurdat_atl AL011953 20.5000 -84.0000 TS 40 1000 0 4 333
1953146N14278 1953 23 NA CS ALICE 1953-05-30 21:00:00 TS 20.6925 -84.0651 main 129 108 P_____________ AL011953 20.6925 -84.0651 TS 42 0 4 347
1953146N14278 1953 23 NA CS ALICE 1953-05-31 00:00:00 TS 20.9000 -84.1000 45 hurdat_atl main 108 88 O_____________ hurdat_atl AL011953 20.9000 -84.1000 TS 45 0 4 349
1953146N14278 1953 23 NA CS ALICE 1953-05-31 03:00:00 TS 21.0925 -84.1500 main 84 63 P_____________ AL011953 21.0925 -84.1500 TS 45 0 4 347
1953146N14278 1953 23 NA CS ALICE 1953-05-31 06:00:00 TS 21.3000 -84.2000 45 hurdat_atl main 63 39 O_____________ hurdat_atl AL011953 21.3000 -84.2000 TS 45 0 5 346
1953146N14278 1953 23 NA CS ALICE 1953-05-31 09:00:00 TS 21.5305 -84.2635 main 39 11 P_____________ AL011953 21.5305 -84.2635 TS 45 0 5 349
1953146N14278 1953 23 NA CS ALICE 1953-05-31 12:00:00 TS 21.8000 -84.3000 45 hurdat_atl main 11 0 O_____________ hurdat_atl AL011953 21.8000 -84.3000 TS 45 0 6 355
1953146N14278 1953 23 NA CS ALICE 1953-05-31 13:00:00 TS 21.9000 -84.3000 45 hurdat_atl main 0 0 O_____________ hurdat_atl AL011953 21.9000 -84.3000 L TS 45 0 5 346
1953146N14278 1953 23 NA GM ALICE 1953-05-31 15:00:00 TS 22.0432 -84.3531 main 10 10 P_____________ AL011953 22.0432 -84.3531 TS 42 0 4 329
1953146N14278 1953 23 NA GM ALICE 1953-05-31 18:00:00 TS 22.2000 -84.5000 40 1003 hurdat_atl main 10 10 O_____________ hurdat_atl AL011953 22.2000 -84.5000 TS 40 1003 0 5 329
1953146N14278 1953 23 NA GM ALICE 1953-05-31 21:00:00 TS 22.4312 -84.6106 main 23 23 P_____________ AL011953 22.4312 -84.6106 TS 42 0 5 340
1953146N14278 1953 23 NA GM ALICE 1953-06-01 00:00:00 TS 22.7000 -84.7000 45 hurdat_atl main 53 53 O_____________ hurdat_atl AL011953 22.7000 -84.7000 TS 45 0 6 347
1953146N14278 1953 23 NA GM ALICE 1953-06-01 03:00:00 TS 22.9925 -84.7501 main 83 83 P_____________ AL011953 22.9925 -84.7501 TS 45 0 6 352
1953146N14278 1953 23 NA GM ALICE 1953-06-01 06:00:00 TS 23.3000 -84.8000 45 hurdat_atl main 105 105 O_____________ hurdat_atl AL011953 23.3000 -84.8000 TS 45 0 6 349
1953146N14278 1953 23 NA GM ALICE 1953-06-01 09:00:00 TS 23.6225 -84.8775 main 136 136 P_____________ AL011953 23.6225 -84.8775 TS 47 0 6 343
1953146N14278 1953 23 NA GM ALICE 1953-06-01 12:00:00 TS 23.9000 -85.0000 50 hurdat_atl main 168 168 O_____________ hurdat_atl AL011953 23.9000 -85.0000 TS 50 0 6 327
1953146N14278 1953 23 NA GM ALICE 1953-06-01 15:00:00 TS 24.1101 -85.2299 main 198 198 P_____________ AL011953 24.1101 -85.2299 TS 50 0 5 310
1953146N14278 1953 23 NA GM ALICE 1953-06-01 18:00:00 TS 24.2000 -85.4000 50 997 hurdat_atl main 220 220 O_____________ hurdat_atl AL011953 24.2000 -85.4000 TS 50 997 0 1 293
1953146N14278 1953 23 NA GM ALICE 1953-06-01 21:00:00 TS 24.1600 -85.3526 main 220 190 P_____________ AL011953 24.1600 -85.3526 TS 50 996 0 3 138
1953146N14278 1953 23 NA GM ALICE 1953-06-02 00:00:00 TS 24.0000 -85.2000 50 996 hurdat_atl main 190 166 O_____________ hurdat_atl AL011953 24.0000 -85.2000 TS 50 996 0 5 146
1953146N14278 1953 23 NA GM ALICE 1953-06-02 03:00:00 TS 23.7575 -85.0574 main 166 128 P_____________ AL011953 23.7575 -85.0574 TS 50 0 6 151
1953146N14278 1953 23 NA GM ALICE 1953-06-02 06:00:00 TS 23.5000 -84.9000 50 hurdat_atl main 128 105 O_____________ hurdat_atl AL011953 23.5000 -84.9000 TS 50 0 5 147
1953146N14278 1953 23 NA GM ALICE 1953-06-02 09:00:00 TS 23.3200 -84.7500 main 105 83 P_____________ AL011953 23.3200 -84.7500 TS 47 0 4 138
1953146N14278 1953 23 NA GM ALICE 1953-06-02 12:00:00 TS 23.2000 -84.6000 45 hurdat_atl main 83 67 O_____________ hurdat_atl AL011953 23.2000 -84.6000 TS 45 0 3 124
1953146N14278 1953 23 NA GM ALICE 1953-06-02 15:00:00 TS 23.1350 -84.4501 main 67 54 P_____________ AL011953 23.1350 -84.4501 TS 42 0 3 110
1953146N14278 1953 23 NA GM ALICE 1953-06-02 18:00:00 TS 23.1000 -84.3000 40 999 hurdat_atl main 54 39 O_____________ hurdat_atl AL011953 23.1000 -84.3000 TS 40 999 0 3 110
1953146N14278 1953 23 NA GM ALICE 1953-06-02 21:00:00 TS 23.0350 -84.1500 main 35 33 P_____________ AL011953 23.0350 -84.1500 TS 40 0 3 110
1953146N14278 1953 23 NA GM ALICE 1953-06-03 00:00:00 TS 23.0000 -84.0000 40 hurdat_atl main 33 30 O_____________ hurdat_atl AL011953 23.0000 -84.0000 TS 40 0 3 90
1953146N14278 1953 23 NA GM ALICE 1953-06-03 03:00:00 TS 23.0350 -83.8500 main 30 24 P_____________ AL011953 23.0350 -83.8500 TS 40 0 3 70
1953146N14278 1953 23 NA GM ALICE 1953-06-03 06:00:00 TS 23.1000 -83.7000 40 hurdat_atl main 33 30 O_____________ hurdat_atl AL011953 23.1000 -83.7000 TS 40 0 3 68
1953146N14278 1953 23 NA GM ALICE 1953-06-03 09:00:00 TS 23.1424 -83.5649 main 30 24 P_____________ AL011953 23.1424 -83.5649 TS 40 0 3 70
1953146N14278 1953 23 NA GM ALICE 1953-06-03 12:00:00 TS 23.2000 -83.4000 40 hurdat_atl main 33 33 O_____________ hurdat_atl AL011953 23.2000 -83.4000 TS 40 0 4 69
1953146N14278 1953 23 NA GM ALICE 1953-06-03 15:00:00 TS 23.2926 -83.1351 main 44 39 P_____________ AL011953 23.2926 -83.1351 TS 40 0 5 67
1953146N14278 1953 23 NA NA ALICE 1953-06-03 18:00:00 TS 23.4000 -82.9000 40 hurdat_atl main 45 44 O_____________ hurdat_atl AL011953 23.4000 -82.9000 TS 40 0 4 59
1953146N14278 1953 23 NA NA ALICE 1953-06-03 21:00:00 TS 23.4849 -82.7826 main 54 54 P_____________ AL011953 23.4849 -82.7826 TS 40 0 2 25
1953146N14278 1953 23 NA NA ALICE 1953-06-04 00:00:00 TS 23.6000 -82.8000 40 hurdat_atl main 63 63 O_____________ hurdat_atl AL011953 23.6000 -82.8000 TS 40 0 3 332
1953146N14278 1953 23 NA NA ALICE 1953-06-04 03:00:00 TS 23.7775 -82.9475 main 88 88 P_____________ AL011953 23.7775 -82.9475 TS 42 0 5 318
1953146N14278 1953 23 NA GM ALICE 1953-06-04 06:00:00 TS 24.0000 -83.2000 45 hurdat_atl main 118 118 O_____________ hurdat_atl AL011953 24.0000 -83.2000 TS 45 0 7 313
1953146N14278 1953 23 NA GM ALICE 1953-06-04 09:00:00 TS 24.2275 -83.4851 main 145 145 P_____________ AL011953 24.2275 -83.4851 TS 47 0 7 312
1953146N14278 1953 23 NA GM ALICE 1953-06-04 12:00:00 TS 24.5000 -83.8000 50 hurdat_atl main 183 183 O_____________ hurdat_atl AL011953 24.5000 -83.8000 TS 50 0 8 317
1953146N14278 1953 23 NA GM ALICE 1953-06-04 15:00:00 TS 24.8349 -84.1001 main 223 223 P_____________ AL011953 24.8349 -84.1001 TS 50 0 9 322
1953146N14278 1953 23 NA GM ALICE 1953-06-04 18:00:00 TS 25.2000 -84.4000 50 hurdat_atl main 275 268 O_____________ hurdat_atl AL011953 25.2000 -84.4000 TS 50 0 9 323
1953146N14278 1953 23 NA GM ALICE 1953-06-04 21:00:00 TS 25.5499 -84.6927 main 279 274 P_____________ AL011953 25.5499 -84.6927 TS 52 0 9 322
1953146N14278 1953 23 NA GM ALICE 1953-06-05 00:00:00 TS 25.9000 -85.0000 55 hurdat_atl main 285 285 O_____________ hurdat_atl AL011953 25.9000 -85.0000 TS 55 0 9 318
1953146N14278 1953 23 NA GM ALICE 1953-06-05 03:00:00 TS 26.2502 -85.3872 main 299 299 P_____________ AL011953 26.2502 -85.3872 TS 55 0 9 318
1953146N14278 1953 23 NA GM ALICE 1953-06-05 06:00:00 TS 26.6000 -85.7000 55 hurdat_atl main 312 307 O_____________ hurdat_atl AL011953 26.6000 -85.7000 TS 55 0 8 332
1953146N14278 1953 23 NA GM ALICE 1953-06-05 09:00:00 TS 26.9498 -85.8029 main 307 270 P_____________ AL011953 26.9498 -85.8029 TS 57 0 7 353
1953146N14278 1953 23 NA GM ALICE 1953-06-05 12:00:00 TS 27.3000 -85.8000 60 hurdat_atl main 270 237 O_____________ hurdat_atl AL011953 27.3000 -85.8000 TS 60 0 7 0
1953146N14278 1953 23 NA GM ALICE 1953-06-05 15:00:00 TS 27.6500 -85.8076 main 226 193 P_____________ AL011953 27.6500 -85.8076 TS 60 0 7 0
1953146N14278 1953 23 NA GM ALICE 1953-06-05 18:00:00 TS 28.0000 -85.8000 60 hurdat_atl main 193 161 O_____________ hurdat_atl AL011953 28.0000 -85.8000 TS 60 0 7 2
1953146N14278 1953 23 NA GM ALICE 1953-06-05 21:00:00 TS 28.3575 -85.7926 main 150 118 P_____________ AL011953 28.3575 -85.7926 TS 57 0 7 0
1953146N14278 1953 23 NA GM ALICE 1953-06-06 00:00:00 TS 28.7000 -85.8000 55 994 hurdat_atl main 118 87 O_____________ hurdat_atl AL011953 28.7000 -85.8000 TS 55 994 0 7 355
1953146N14278 1953 23 NA GM ALICE 1953-06-06 03:00:00 TS 29.0150 -85.8499 main 87 65 P_____________ AL011953 29.0150 -85.8499 TS 52 0 6 352
1953146N14278 1953 23 NA GM ALICE 1953-06-06 06:00:00 TS 29.3000 -85.9000 50 hurdat_atl main 65 53 O_____________ hurdat_atl AL011953 29.3000 -85.9000 TS 50 0 5 354
1953146N14278 1953 23 NA GM ALICE 1953-06-06 09:00:00 TS 29.5491 -85.9074 main 53 38 P_____________ AL011953 29.5491 -85.9074 TS 47 0 5 2
1953146N14278 1953 23 NA GM ALICE 1953-06-06 12:00:00 TS 29.8000 -85.9000 45 hurdat_atl main 38 11 O_____________ hurdat_atl AL011953 29.8000 -85.9000 TS 45 0 5 0
1953146N14278 1953 23 NA GM ALICE 1953-06-06 15:00:00 TS 30.0963 -85.9000 main 11 0 P_____________ AL011953 30.0963 -85.9000 TS 42 0 6 2
1953146N14278 1953 23 NA NA ALICE 1953-06-06 17:00:00 TS 30.3000 -85.9000 40 hurdat_atl main 0 0 O_____________ hurdat_atl AL011953 30.3000 -85.9000 L TS 40 0 6 2
1953146N14278 1953 23 NA NA ALICE 1953-06-06 18:00:00 TS 30.4000 -85.9000 40 hurdat_atl main 0 0 O_____________ hurdat_atl AL011953 30.4000 -85.9000 TS 40 0 5 3
1953146N14278 1953 23 NA NA ALICE 1953-06-06 21:00:00 TS 30.6330 -85.8755 main 0 0 P_____________ AL011953 30.6330 -85.8755 TS 32 -1 4 12
1953146N14278 1953 23 NA NA ALICE 1953-06-07 00:00:00 TS 30.8000 -85.8000 25 hurdat_atl main 0 0 O_____________ hurdat_atl AL011953 30.8000 -85.8000 TD 25 -1 4 30
1953146N14278 1953 23 NA NA ALICE 1953-06-07 03:00:00 TS 30.9516 -85.6666 main 0 0 P_____________ AL011953 30.9516 -85.6666 TD 22 -1 4 40
1953146N14278 1953 23 NA NA ALICE 1953-06-07 06:00:00 TS 31.1000 -85.5000 20 hurdat_atl main 0 O_____________ hurdat_atl AL011953 31.1000 -85.5000 TD 20 -1 4 44

IBTrACS Databaseについて

本データベースは、米国NOAAが公開する1842年以降の世界の熱帯低気圧のベストトラックデータアーカイブInternational Best Track Archive for Climate Stewardship (IBTrACS)を、ウェブで閲覧しやすい形式に変換したものです。

最終更新日:2021-10-27